Time;durP1;ratioP1;P1;durP2;ratioP2;P2;SDS_P1;SDS_P2;PMS_P1;PMS_P2;Temp;Humidity;BMP_temperature;BMP_pressure;BME280_temperature;BME280_humidity;BME280_pressure;Samples;Min_cycle;Max_cycle;Signal;HPM_P1;HPM_P2
2022/12/27 00:00:34;;;;;;;8.35;1.55;;;;;;;4.36;100.00;100968.44;5209533;28;20029;-74
2022/12/27 00:03:04;;;;;;;8.32;2.15;;;;;;;4.34;100.00;100977.94;5210314;28;20458;-76
2022/12/27 00:05:34;;;;;;;11.43;1.92;;;;;;;4.34;100.00;100987.41;5220694;28;20452;-76
2022/12/27 00:08:05;;;;;;;9.68;1.80;;;;;;;4.26;100.00;100987.44;5223354;28;20054;-75
2022/12/27 00:10:35;;;;;;;14.77;2.20;;;;;;;4.27;100.00;100988.31;5220935;28;20021;-75
2022/12/27 00:13:05;;;;;;;12.18;1.85;;;;;;;4.21;100.00;101001.25;5224717;28;20024;-75
2022/12/27 00:15:36;;;;;;;10.52;1.90;;;;;;;4.24;100.00;101003.81;5207999;28;20086;-74
2022/12/27 00:18:06;;;;;;;8.70;1.70;;;;;;;4.22;100.00;101003.84;5209696;28;20025;-74
2022/12/27 00:20:36;;;;;;;9.05;1.92;;;;;;;4.28;100.00;101008.97;5202457;28;20493;-75
2022/12/27 00:23:06;;;;;;;13.73;1.77;;;;;;;4.25;100.00;101001.25;5213894;28;20048;-76
2022/12/27 00:25:37;;;;;;;8.88;1.80;;;;;;;4.17;100.00;101003.00;5210587;28;20057;-75
2022/12/27 00:28:07;;;;;;;8.80;1.90;;;;;;;4.24;100.00;101002.09;5218257;28;20033;-76
2022/12/27 00:30:37;;;;;;;7.65;1.75;;;;;;;4.27;100.00;101006.44;5211970;28;20036;-76
2022/12/27 00:33:08;;;;;;;6.57;1.70;;;;;;;4.23;100.00;101008.16;5215282;28;20021;-78
2022/12/27 00:35:38;;;;;;;10.13;1.90;;;;;;;4.18;100.00;101011.59;5211205;28;20414;-76
2022/12/27 00:38:08;;;;;;;10.43;1.65;;;;;;;4.23;100.00;101021.09;5212355;28;20041;-76
2022/12/27 00:40:39;;;;;;;11.00;2.00;;;;;;;4.12;100.00;101012.47;5211701;28;20017;-76
2022/12/27 00:43:09;;;;;;;10.82;1.75;;;;;;;4.19;100.00;101019.38;5217278;28;20059;-76
2022/12/27 00:45:40;;;;;;;7.07;1.40;;;;;;;4.10;100.00;101011.63;5211798;28;20021;-76
2022/12/27 00:48:10;;;;;;;8.40;1.77;;;;;;;4.03;100.00;101022.00;5212349;28;20029;-76
2022/12/27 00:50:41;;;;;;;5.47;1.40;;;;;;;3.99;100.00;101031.47;5195669;28;20029;-76
2022/12/27 00:53:12;;;;;;;7.43;1.50;;;;;;;4.05;100.00;101020.25;5192648;28;20116;-76
2022/12/27 00:55:43;;;;;;;8.30;1.75;;;;;;;4.06;100.00;101028.03;5212154;28;20506;-75
2022/12/27 00:58:14;;;;;;;7.28;1.70;;;;;;;4.16;100.00;101031.44;5207670;28;20510;-76
2022/12/27 01:00:44;;;;;;;6.78;1.60;;;;;;;4.11;100.00;101025.44;5204103;28;20029;-77
2022/12/27 01:03:15;;;;;;;6.45;1.67;;;;;;;4.09;100.00;101038.34;5212356;28;20498;-77
2022/12/27 01:05:45;;;;;;;9.70;2.17;;;;;;;4.03;100.00;101034.91;5211097;28;20502;-78
2022/12/27 01:08:16;;;;;;;7.15;1.52;;;;;;;3.99;100.00;101039.22;5211158;28;20030;-79
2022/12/27 01:10:46;;;;;;;8.02;1.65;;;;;;;4.05;100.00;101035.78;5207736;28;20033;-78
2022/12/27 01:13:16;;;;;;;7.90;1.83;;;;;;;4.09;100.00;101028.00;5218580;28;20109;-78
2022/12/27 01:15:47;;;;;;;11.10;2.55;;;;;;;3.99;100.00;101036.63;5213531;28;20041;-77
2022/12/27 01:18:17;;;;;;;10.15;2.58;;;;;;;3.91;100.00;101038.41;5208630;28;20025;-76
2022/12/27 01:20:47;;;;;;;7.25;1.75;;;;;;;4.03;100.00;101032.34;5211111;28;20013;-76
2022/12/27 01:23:17;;;;;;;12.25;2.40;;;;;;;3.97;100.00;101033.19;5203829;28;20071;-76
2022/12/27 01:25:48;;;;;;;11.15;2.40;;;;;;;4.03;100.00;101033.22;5207272;28;20090;-77
2022/12/27 01:28:18;;;;;;;9.93;1.90;;;;;;;3.93;100.00;101031.50;5212955;28;20338;-75
2022/12/27 01:30:48;;;;;;;8.60;2.13;;;;;;;3.91;100.00;101032.34;5210016;28;20105;-74
2022/12/27 01:33:19;;;;;;;10.80;2.10;;;;;;;3.99;100.00;101043.56;5204754;28;20025;-75
2022/12/27 01:35:49;;;;;;;6.50;1.92;;;;;;;4.08;100.00;101034.06;5208469;28;20041;-75
2022/12/27 01:38:19;;;;;;;12.27;1.85;;;;;;;4.00;100.00;101043.56;5202060;28;20045;-75
2022/12/27 01:40:49;;;;;;;8.32;1.98;;;;;;;4.13;100.00;101053.00;5201463;28;20029;-74
2022/12/27 01:43:36;;;;;;;7.68;2.00;;;;;;;4.12;100.00;101056.44;5207909;28;20494;-75
2022/12/27 01:46:07;;;;;;;8.68;2.10;;;;;;;4.16;100.00;101068.50;5214361;28;20056;-75
2022/12/27 01:48:37;;;;;;;10.75;1.85;;;;;;;4.19;100.00;101083.16;5215311;28;20116;-76
2022/12/27 01:51:09;;;;;;;8.48;2.15;;;;;;;4.39;100.00;101090.03;5204381;28;20040;-75
2022/12/27 01:53:44;;;;;;;9.70;2.55;;;;;;;4.33;100.00;101082.25;5203020;28;20491;-75
2022/12/27 01:56:33;;;;;;;8.30;2.50;;;;;;;4.42;100.00;101079.66;5214784;28;20025;-75
2022/12/27 01:59:08;;;;;;;6.78;1.90;;;;;;;4.45;100.00;101068.44;5210229;28;20063;-76
2022/12/27 02:01:42;;;;;;;14.15;2.75;;;;;;;4.47;100.00;101077.91;5210401;28;20056;-75
2022/12/27 02:04:17;;;;;;;6.82;2.10;;;;;;;4.44;100.00;101067.56;5202919;28;20079;-75
2022/12/27 02:06:48;;;;;;;12.77;2.30;;;;;;;4.39;100.00;101077.09;5200498;28;20024;-78
2022/12/27 02:09:29;;;;;;;10.30;2.22;;;;;;;4.37;100.00;101078.81;5208120;28;20025;-76
2022/12/27 02:12:03;;;;;;;10.15;3.03;;;;;;;4.25;100.00;101078.84;5206210;28;20048;-79
2022/12/27 02:14:44;;;;;;;6.05;1.92;;;;;;;4.26;100.00;101077.13;5210389;28;20335;-76
2022/12/27 02:17:28;;;;;;;10.30;2.08;;;;;;;4.23;100.00;101082.28;5209113;28;20013;-77
2022/12/27 02:20:15;;;;;;;14.63;4.38;;;;;;;4.22;100.00;101091.78;5218512;28;20033;-75
2022/12/27 02:26:12;;;;;;;8.25;1.85;;;;;;;4.07;100.00;101086.63;5220646;28;20082;-76
2022/12/27 02:29:03;;;;;;;9.82;1.80;;;;;;;4.04;100.00;101094.41;5211136;28;20029;-77
2022/12/27 02:31:40;;;;;;;13.52;2.13;;;;;;;3.92;100.00;101101.31;5204289;28;20494;-75
2022/12/27 02:34:26;;;;;;;8.38;1.88;;;;;;;4.06;100.00;101105.59;5199206;28;20386;-75
2022/12/27 02:37:02;;;;;;;7.15;1.90;;;;;;;4.06;100.00;101103.00;5210891;28;20638;-76
2022/12/27 02:39:37;;;;;;;7.45;1.60;;;;;;;4.00;100.00;101100.44;5221220;28;20021;-76
2022/12/27 02:54:34;;;;;;;11.68;2.40;;;;;;;4.18;100.00;101103.00;5163361;28;20033;-75
2022/12/27 02:57:10;;;;;;;16.48;2.63;;;;;;;4.25;100.00;101099.53;5200401;28;20017;-75
2022/12/27 03:03:22;;;;;;;8.68;1.80;;;;;;;4.26;100.00;101088.31;5200361;28;20518;-77
2022/12/27 03:18:43;;;;;;;10.70;1.92;;;;;;;4.07;100.00;101096.97;5205198;28;20430;-75
2022/12/27 03:27:07;;;;;;;13.55;1.95;;;;;;;4.13;100.00;101106.47;5214557;28;20047;-78
2022/12/27 03:33:11;;;;;;;8.55;1.80;;;;;;;3.99;100.00;101101.28;5199804;28;20440;-75
2022/12/27 03:35:38;;;;;;;11.93;1.90;;;;;;;3.95;100.00;101098.72;5212134;28;20028;-75
2022/12/27 03:38:12;;;;;;;9.43;1.42;;;;;;;3.98;100.00;101102.16;5220109;28;20120;-76
2022/12/27 03:43:45;;;;;;;7.07;1.80;;;;;;;3.97;100.00;101105.59;5220335;28;20098;-76
2022/12/27 03:46:34;;;;;;;8.90;1.90;;;;;;;3.99;100.00;101108.19;5216847;28;20378;-74
2022/12/27 03:49:19;;;;;;;10.35;1.92;;;;;;;3.94;100.00;101108.19;5222859;28;20029;-75
2022/12/27 03:52:02;;;;;;;;;;;;;;;3.93;100.00;101111.63;5203961;28;20418;-75
2022/12/27 03:54:37;;;;;;;6.20;1.60;;;;;;;3.95;100.00;101109.91;5213277;28;19913;-77
2022/12/27 03:57:11;;;;;;;11.25;1.75;;;;;;;3.95;100.00;101114.22;5214883;28;20013;-76
2022/12/27 03:59:42;;;;;;;11.25;1.30;;;;;;;3.93;100.00;101113.38;5212547;28;20056;-75
2022/12/27 04:02:13;;;;;;;9.55;1.50;;;;;;;3.89;100.00;101115.09;5211981;28;20064;-75
2022/12/27 04:04:44;;;;;;;7.85;1.85;;;;;;;3.92;100.00;101120.25;5221910;28;20104;-75
2022/12/27 04:07:14;;;;;;;12.77;1.45;;;;;;;3.87;100.00;101113.34;5222451;28;20039;-76
2022/12/27 04:35:05;;;;;;;12.98;1.83;;;;;;;4.11;100.00;101100.44;5213970;28;20491;-76
2022/12/27 04:37:35;;;;;;;8.40;1.98;;;;;;;4.10;100.00;101109.91;5202338;28;20238;-75
2022/12/27 04:57:11;;;;;;;6.90;1.30;;;;;;;4.05;100.00;101116.81;5212731;28;20018;-77
2022/12/27 05:02:30;;;;;;;13.18;1.98;;;;;;;4.11;100.00;101128.88;5201965;28;20123;-75
2022/12/27 05:05:01;;;;;;;8.60;1.70;;;;;;;4.17;100.00;101131.44;5201281;28;20025;-76
2022/12/27 05:16:00;;;;;;;7.57;1.70;;;;;;;4.37;100.00;101134.88;5210850;28;20402;-75
2022/12/27 05:18:30;;;;;;;7.88;1.80;;;;;;;4.45;100.00;101131.41;5217642;28;20029;-75
2022/12/27 05:21:02;;;;;;;10.73;1.95;;;;;;;4.46;100.00;101132.28;5215882;28;20048;-75
2022/12/27 05:26:25;;;;;;;8.77;2.35;;;;;;;4.64;100.00;101142.59;5212412;28;20398;-77
2022/12/27 05:28:57;;;;;;;8.02;2.00;;;;;;;4.66;100.00;101144.28;5211993;28;20033;-77
2022/12/27 05:31:28;;;;;;;9.10;2.38;;;;;;;4.72;100.00;101140.81;5209557;28;20025;-76
2022/12/27 05:33:58;;;;;;;11.05;2.33;;;;;;;4.75;100.00;101145.97;5210531;28;20094;-75
2022/12/27 05:36:29;;;;;;;9.15;1.92;;;;;;;4.77;100.00;101139.94;5211639;28;20025;-75
2022/12/27 05:38:59;;;;;;;12.23;2.15;;;;;;;4.72;100.00;101138.22;5212890;28;20029;-74
2022/12/27 05:41:29;;;;;;;10.30;2.50;;;;;;;4.80;100.00;101145.09;5211181;28;20418;-75
2022/12/27 05:44:00;;;;;;;9.98;2.15;;;;;;;4.84;100.00;101136.44;5204577;28;20025;-75
2022/12/27 05:46:30;;;;;;;9.70;2.35;;;;;;;4.87;100.00;101151.13;5207832;28;20029;-75
2022/12/27 05:49:00;;;;;;;8.55;2.30;;;;;;;4.95;100.00;101134.69;5199987;28;20414;-77
2022/12/27 05:51:31;;;;;;;6.82;2.20;;;;;;;5.05;100.00;101146.75;5221218;28;20029;-76
2022/12/27 05:54:01;;;;;;;11.93;2.35;;;;;;;5.01;100.00;101154.53;5218717;28;20025;-75
2022/12/27 05:56:34;;;;;;;10.93;2.47;;;;;;;5.10;100.00;101146.72;5212372;28;20094;-75
2022/12/27 05:59:06;;;;;;;8.68;2.05;;;;;;;5.07;100.00;101152.78;5213144;28;20025;-75
2022/12/27 06:01:37;;;;;;;6.22;2.17;;;;;;;5.18;100.00;101163.09;5209762;28;20441;-75
2022/12/27 06:04:09;;;;;;;8.60;1.92;;;;;;;5.22;100.00;101170.84;5220031;28;20060;-74
2022/12/27 06:06:39;;;;;;;11.02;2.38;;;;;;;5.34;100.00;101164.75;5220996;28;20021;-75
2022/12/27 06:09:09;;;;;;;11.63;2.63;;;;;;;5.33;100.00;101174.22;5218980;28;20094;-75
2022/12/27 06:11:55;;;;;;;8.70;2.08;;;;;;;5.39;100.00;101172.47;5238469;28;20410;-74
2022/12/27 06:14:25;;;;;;;8.02;2.20;;;;;;;5.31;100.00;101173.38;5237022;28;20559;-74
2022/12/27 06:16:56;;;;;;;14.70;2.40;;;;;;;5.39;100.00;101175.06;5239025;28;20055;-75
2022/12/27 06:19:26;;;;;;;11.13;2.65;;;;;;;5.46;100.00;101181.97;5238917;28;20035;-75
2022/12/27 06:21:56;;;;;;;10.63;2.70;;;;;;;5.46;100.00;101186.25;5238890;28;20029;-74
2022/12/27 06:24:30;;;;;;;10.27;2.80;;;;;;;5.43;100.00;101181.94;5239704;28;20474;-75
2022/12/27 06:27:00;;;;;;;9.25;2.13;;;;;;;5.49;100.00;101184.53;5237902;28;20024;-75
2022/12/27 06:29:30;;;;;;;9.20;2.55;;;;;;;5.52;100.00;101186.22;5238211;28;20051;-74
2022/12/27 06:32:01;;;;;;;10.77;2.20;;;;;;;5.54;100.00;101192.28;5216572;28;20188;-74
2022/12/27 06:34:31;;;;;;;10.15;2.42;;;;;;;5.54;100.00;101184.50;5235410;28;20057;-74
2022/12/27 06:37:01;;;;;;;10.75;2.78;;;;;;;5.53;100.00;101187.94;5236691;28;20106;-76
2022/12/27 06:39:32;;;;;;;8.68;2.47;;;;;;;5.54;100.00;101189.69;5237341;28;20023;-75
2022/12/27 06:42:02;;;;;;;11.70;2.55;;;;;;;5.56;100.00;101190.53;5237578;28;20468;-77
2022/12/27 06:44:32;;;;;;;7.47;2.05;;;;;;;5.53;100.00;101188.81;5237815;28;20103;-76
2022/12/27 06:47:03;;;;;;;9.95;2.47;;;;;;;5.49;100.00;101197.50;5236599;28;20027;-75
2022/12/27 06:49:33;;;;;;;7.95;2.13;;;;;;;5.52;100.00;101201.78;5237802;28;20420;-74
2022/12/27 06:52:04;;;;;;;14.82;2.88;;;;;;;5.56;100.00;101208.69;5238361;28;20035;-74
2022/12/27 06:54:34;;;;;;;9.20;2.28;;;;;;;5.54;100.00;101205.25;5236777;28;20029;-75
2022/12/27 06:57:04;;;;;;;10.40;3.15;;;;;;;5.58;100.00;101201.75;5237221;28;20056;-75
2022/12/27 06:59:34;;;;;;;10.88;2.78;;;;;;;5.55;100.00;101197.44;5237970;28;20016;-74
2022/12/27 07:02:05;;;;;;;7.28;2.22;;;;;;;5.70;100.00;101207.72;5238150;28;20306;-74
2022/12/27 07:04:36;;;;;;;10.80;3.13;;;;;;;5.54;100.00;101211.28;5237897;28;20032;-76
2022/12/27 07:07:06;;;;;;;11.07;2.80;;;;;;;5.57;100.00;101207.81;5232881;28;20025;-74
2022/12/27 07:09:37;;;;;;;8.35;3.13;;;;;;;5.54;100.00;101210.44;5236752;28;20032;-74
2022/12/27 07:12:07;;;;;;;10.93;2.95;;;;;;;5.49;100.00;101218.22;5237545;28;20051;-74
2022/12/27 07:14:37;;;;;;;13.88;3.47;;;;;;;5.58;100.00;101218.16;5236896;28;20115;-75
2022/12/27 07:17:08;;;;;;;14.05;2.95;;;;;;;5.54;100.00;101220.81;5237239;28;20027;-75
2022/12/27 07:19:39;;;;;;;14.00;3.50;;;;;;;5.50;100.00;101245.88;5236700;28;20398;-75
2022/12/27 07:22:09;;;;;;;10.85;2.50;;;;;;;5.61;100.00;101238.88;5225010;28;20036;-76
2022/12/27 07:24:39;;;;;;;8.50;2.63;;;;;;;5.52;100.00;101245.84;5213285;28;20466;-74
2022/12/27 07:27:09;;;;;;;7.53;2.55;;;;;;;5.61;100.00;101248.41;5210670;28;20059;-73
2022/12/27 07:29:40;;;;;;;11.15;2.92;;;;;;;5.51;100.00;101241.53;5221222;28;20021;-75
2022/12/27 07:32:10;;;;;;;11.18;2.67;;;;;;;5.47;100.00;101250.19;5222616;28;20033;-75
2022/12/27 07:34:40;;;;;;;8.30;2.88;;;;;;;5.47;100.00;101250.19;5219447;28;20498;-75
2022/12/27 07:37:10;;;;;;;5.40;2.38;;;;;;;5.42;100.00;101259.72;5223105;28;20055;-75
2022/12/27 07:39:41;;;;;;;6.32;2.58;;;;;;;5.46;100.00;101271.81;5223800;28;20052;-75
2022/12/27 07:42:11;;;;;;;8.00;2.88;;;;;;;5.55;100.00;101279.56;5220317;28;20170;-74
2022/12/27 07:44:41;;;;;;;16.25;2.63;;;;;;;5.66;100.00;101282.94;5222765;28;20025;-74
2022/12/27 07:47:12;;;;;;;9.05;2.90;;;;;;;5.61;100.00;101289.88;5223938;28;20058;-75
2022/12/27 07:49:42;;;;;;;9.95;2.58;;;;;;;5.67;100.00;101275.16;5224468;28;20535;-75
2022/12/27 07:52:12;;;;;;;10.57;3.10;;;;;;;5.70;100.00;101290.72;5233794;28;20021;-76
2022/12/27 07:54:43;;;;;;;13.77;3.15;;;;;;;5.65;100.00;101287.28;5224565;28;20044;-76
2022/12/27 07:57:13;;;;;;;7.07;3.00;;;;;;;5.65;100.00;101287.28;5221304;28;20017;-74
2022/12/27 07:59:43;;;;;;;7.38;3.05;;;;;;;5.63;100.00;101290.75;5219084;28;20025;-75
2022/12/27 08:02:15;;;;;;;10.15;2.95;;;;;;;5.75;100.00;101293.28;5221779;28;20025;-75
2022/12/27 08:04:45;;;;;;;13.55;3.50;;;;;;;5.63;100.00;101298.50;5223166;28;20103;-76
2022/12/27 08:07:18;;;;;;;11.57;3.17;;;;;;;5.64;100.00;101305.44;5223081;28;20501;-75
2022/12/27 08:09:48;;;;;;;9.57;3.33;;;;;;;5.69;100.00;101311.44;5222763;28;20021;-75
2022/12/27 08:12:19;;;;;;;9.00;3.28;;;;;;;5.58;100.00;101316.69;5214355;28;20064;-74
2022/12/27 08:14:49;;;;;;;9.48;3.17;;;;;;;5.70;100.00;101311.44;5221256;28;20495;-73
2022/12/27 08:17:26;;;;;;;11.35;3.70;;;;;;;5.79;100.00;101320.97;5222387;28;20108;-75
2022/12/27 08:19:56;;;;;;;13.77;3.78;;;;;;;5.72;100.00;101319.25;5223190;28;20427;-75
2022/12/27 08:22:27;;;;;;;12.35;3.78;;;;;;;5.69;100.00;101329.59;5221363;28;20029;-75
2022/12/27 08:24:57;;;;;;;11.57;3.85;;;;;;;5.79;100.00;101331.34;5221574;28;20364;-74
2022/12/27 08:27:28;;;;;;;7.32;2.90;;;;;;;5.75;100.00;101337.38;5219975;28;20360;-74
2022/12/27 08:29:58;;;;;;;11.00;3.55;;;;;;;5.76;100.00;101342.53;5219219;28;20112;-74
2022/12/27 08:32:28;;;;;;;14.65;3.70;;;;;;;5.74;100.00;101336.50;5220777;28;20052;-75
2022/12/27 08:34:58;;;;;;;10.73;4.10;;;;;;;5.72;100.00;101347.75;5213767;28;20033;-74
2022/12/27 08:37:29;;;;;;;8.38;3.20;;;;;;;5.76;100.00;101342.53;5217509;28;20398;-74
2022/12/27 08:39:59;;;;;;;14.00;3.60;;;;;;;5.72;100.00;101350.34;5221699;28;20060;-75
2022/12/27 08:42:29;;;;;;;15.70;4.40;;;;;;;5.85;100.00;101346.84;5220405;28;20427;-75
2022/12/27 08:45:00;;;;;;;12.00;3.60;;;;;;;5.73;100.00;101345.16;5220265;28;20024;-75
2022/12/27 08:47:30;;;;;;;9.93;4.22;;;;;;;5.71;100.00;101343.44;5220199;28;20532;-75
2022/12/27 08:50:00;;;;;;;10.20;3.25;;;;;;;5.79;100.00;101341.72;5226076;28;20029;-75
2022/12/27 08:52:30;;;;;;;10.02;3.42;;;;;;;5.80;100.00;101339.13;5230724;28;20472;-76
2022/12/27 08:55:02;;;;;;;10.88;3.70;;;;;;;5.72;100.00;101348.59;5220626;28;20045;-75
2022/12/27 08:57:32;;;;;;;10.55;3.90;;;;;;;5.71;100.00;101353.81;5218608;28;20104;-76
2022/12/27 09:00:05;;;;;;;11.20;3.72;;;;;;;5.86;100.00;101353.75;5221988;28;20100;-77
2022/12/27 09:02:36;;;;;;;9.75;3.20;;;;;;;5.79;100.00;101349.47;5220974;28;20025;-74
2022/12/27 09:05:06;;;;;;;10.27;3.70;;;;;;;5.79;100.00;101362.44;5221710;28;20382;-74
2022/12/27 09:07:36;;;;;;;10.27;4.00;;;;;;;5.88;100.00;101358.09;5217028;28;20329;-74
2022/12/27 09:10:07;;;;;;;7.78;3.20;;;;;;;5.79;100.00;101362.44;5221048;28;20453;-75
2022/12/27 09:12:38;;;;;;;12.05;4.20;;;;;;;5.90;100.00;101371.91;5220698;28;20048;-76
2022/12/27 09:15:08;;;;;;;15.70;3.60;;;;;;;5.86;100.00;101370.22;5220378;28;20109;-77
2022/12/27 09:17:39;;;;;;;13.80;3.55;;;;;;;5.88;100.00;101373.66;5218304;28;20033;-74
2022/12/27 09:20:11;;;;;;;11.27;4.40;;;;;;;5.99;100.00;101391.75;5220570;28;20055;-75
2022/12/27 09:22:41;;;;;;;9.88;3.65;;;;;;;6.01;100.00;101390.03;5206496;28;20053;-73
2022/12/27 09:25:11;;;;;;;10.77;3.70;;;;;;;5.98;100.00;101395.22;5215706;28;20348;-74
2022/12/27 09:27:42;;;;;;;9.70;3.60;;;;;;;6.03;100.00;101390.88;5218796;28;20033;-74
2022/12/27 09:30:12;;;;;;;11.55;3.40;;;;;;;6.07;100.00;101397.81;5220997;28;20462;-74
2022/12/27 09:32:42;;;;;;;14.38;4.28;;;;;;;6.05;100.00;101400.38;5221254;28;20191;-75
2022/12/27 09:35:13;;;;;;;12.23;5.05;;;;;;;6.14;100.00;101404.69;5217558;28;20032;-75
2022/12/27 09:37:43;;;;;;;8.80;3.40;;;;;;;6.30;100.00;101398.53;5221326;28;20370;-74
2022/12/27 09:40:17;;;;;;;12.50;2.95;;;;;;;6.44;100.00;101396.75;5221713;28;20357;-75
2022/12/27 09:43:00;;;;;;;8.82;3.50;;;;;;;6.47;100.00;101399.31;5216104;28;20041;-75
2022/12/27 09:45:41;;;;;;;11.68;3.25;;;;;;;6.53;99.72;101389.75;5218777;28;20048;-76
2022/12/27 09:48:23;;;;;;;12.43;3.15;;;;;;;6.55;98.99;101389.72;5228930;28;20017;-76
2022/12/27 09:50:58;;;;;;;10.00;3.17;;;;;;;6.61;98.53;101390.56;5208597;28;20431;-76
2022/12/27 09:53:40;;;;;;;;;;;;;;;6.57;99.26;101395.81;5220873;28;20059;-73
2022/12/27 09:56:13;;;;;;;10.25;3.05;;;;;;;6.40;99.55;101397.63;5221479;28;19944;-75
2022/12/27 09:58:49;;;;;;;14.70;3.33;;;;;;;6.66;99.33;101394.00;5220220;28;20516;-76
2022/12/27 10:01:32;;;;;;;12.63;3.20;;;;;;;6.55;98.81;101398.41;5215972;28;20398;-74
2022/12/27 10:04:04;;;;;;;10.52;3.20;;;;;;;6.52;99.38;101411.41;5220747;28;20025;-75
2022/12/27 10:06:41;;;;;;;7.97;3.05;;;;;;;6.45;99.94;101409.69;5220893;28;20359;-73
2022/12/27 10:09:36;;;;;;;12.95;2.42;;;;;;;6.44;99.31;101412.31;5220060;28;20108;-75
2022/12/27 10:12:34;;;;;;;12.13;2.70;;;;;;;6.39;100.00;101419.28;5220710;28;20029;-74
2022/12/27 10:15:46;;;;;;;7.40;2.63;;;;;;;6.38;99.31;101425.31;5231993;28;20116;-75
2022/12/27 10:18:37;;;;;;;14.38;2.50;;;;;;;6.47;100.00;101422.69;5239024;28;20032;-75
2022/12/27 10:21:22;;;;;;;7.68;2.60;;;;;;;6.47;100.00;101420.09;5243307;28;20024;-75
2022/12/27 10:23:57;;;;;;;7.50;2.47;;;;;;;6.46;100.00;101420.94;5225989;28;20037;-74
2022/12/27 10:26:27;;;;;;;11.23;2.70;;;;;;;6.51;100.00;101424.38;5220919;28;20052;-75
2022/12/27 10:29:12;;;;;;;9.82;2.70;;;;;;;6.56;100.00;101431.28;5219197;28;20107;-74
2022/12/27 10:31:42;;;;;;;9.48;2.20;;;;;;;6.61;99.75;101426.06;5220871;28;20021;-74
2022/12/27 10:34:16;;;;;;;10.50;2.88;;;;;;;6.40;99.16;101426.19;5212247;28;20044;-75
2022/12/27 10:36:46;;;;;;;7.57;3.10;;;;;;;6.52;99.76;101420.91;5217751;28;20029;-74
2022/12/27 10:39:27;;;;;;;9.23;2.50;;;;;;;6.57;99.73;101427.81;5216002;28;20481;-75
2022/12/27 10:42:22;;;;;;;11.10;2.50;;;;;;;6.49;98.94;101421.81;5221783;28;20028;-77
2022/12/27 10:45:32;;;;;;;11.60;2.70;;;;;;;6.61;99.00;101420.88;5222643;28;20052;-75
2022/12/27 10:48:23;;;;;;;8.35;2.15;;;;;;;6.87;98.15;101419.81;5217649;28;20013;-74
2022/12/27 10:51:00;;;;;;;14.10;2.47;;;;;;;6.98;97.85;101425.81;5215034;28;20029;-75
2022/12/27 10:53:51;;;;;;;7.80;2.30;;;;;;;6.95;96.81;101415.41;5218981;28;20104;-75
2022/12/27 10:56:25;;;;;;;6.00;2.30;;;;;;;6.97;96.45;101416.25;5220701;28;20151;-76
2022/12/27 10:59:21;;;;;;;8.85;2.58;;;;;;;7.11;97.67;101422.22;5223163;28;20036;-74
2022/12/27 11:02:16;;;;;;;11.38;2.30;;;;;;;7.28;96.29;101418.63;5222988;28;20041;-76
2022/12/27 11:04:58;;;;;;;9.10;2.35;;;;;;;7.24;95.96;101418.66;5214488;28;20056;-74
2022/12/27 11:07:33;;;;;;;8.65;2.25;;;;;;;7.22;95.98;101427.34;5212518;28;20116;-75
2022/12/27 11:10:17;;;;;;;8.73;2.70;;;;;;;7.34;96.59;101418.56;5220080;28;20095;-76
2022/12/27 11:13:02;;;;;;;10.27;2.92;;;;;;;7.15;95.01;101417.88;5223580;28;20155;-76
2022/12/27 11:15:36;;;;;;;24.25;9.55;;;;;;;7.27;95.79;101421.22;5222962;28;20493;-74
2022/12/27 11:18:19;;;;;;;10.90;2.95;;;;;;;7.27;95.02;101425.56;5223073;28;20051;-74
2022/12/27 11:20:52;;;;;;;11.75;2.42;;;;;;;7.45;95.73;101421.94;5221429;28;20028;-75
2022/12/27 11:23:28;;;;;;;14.35;2.78;;;;;;;7.51;95.05;101406.25;5218632;28;20389;-74
2022/12/27 11:26:01;;;;;;;13.13;3.45;;;;;;;7.54;93.91;101416.63;5221043;28;20045;-74
2022/12/27 11:28:46;;;;;;;12.80;3.30;;;;;;;7.55;95.42;101420.94;5222049;28;20082;-76
2022/12/27 11:31:24;;;;;;;11.23;2.00;;;;;;;7.67;94.64;101418.22;5223768;28;20120;-75
2022/12/27 11:33:59;;;;;;;7.60;2.22;;;;;;;7.82;93.29;101412.88;5223963;28;20446;-72
2022/12/27 11:36:42;;;;;;;11.60;2.33;;;;;;;7.77;93.34;101414.66;5219598;28;20040;-75
2022/12/27 11:39:37;;;;;;;9.38;2.42;;;;;;;7.55;94.24;101423.53;5227565;28;20486;-74
2022/12/27 11:42:20;;;;;;;7.82;2.22;;;;;;;7.44;97.87;101422.81;5232811;28;20035;-75
2022/12/27 11:45:14;;;;;;;10.57;2.95;;;;;;;7.31;97.81;101426.38;5222968;28;20359;-75
2022/12/27 11:47:50;;;;;;;11.38;3.05;;;;;;;7.22;97.90;101429.06;5216111;28;20037;-74
2022/12/27 11:50:34;;;;;;;8.85;2.00;;;;;;;6.96;98.69;101424.94;5213148;28;20043;-76
2022/12/27 11:53:19;;;;;;;7.90;2.35;;;;;;;6.49;100.00;101452.09;5223120;28;20035;-75
2022/12/27 11:56:08;;;;;;;8.73;2.10;;;;;;;6.17;100.00;101456.56;5223501;28;20024;-75
2022/12/27 11:58:47;;;;;;;12.90;3.63;;;;;;;6.11;100.00;101446.22;5222246;28;20386;-74
2022/12/27 12:01:34;;;;;;;10.32;2.67;;;;;;;5.93;100.00;101446.28;5217372;28;20043;-74
2022/12/27 12:04:32;;;;;;;6.97;2.55;;;;;;;5.98;100.00;101440.22;5216725;28;20112;-75
2022/12/27 12:07:14;;;;;;;9.05;2.70;;;;;;;6.07;100.00;101454.88;5199273;28;20129;-75
2022/12/27 12:09:44;;;;;;;5.75;1.80;;;;;;;5.98;100.00;101447.13;5200475;28;20470;-73
2022/12/27 12:12:52;;;;;;;6.85;1.90;;;;;;;5.77;100.00;101444.56;5204248;28;20037;-75
2022/12/27 12:15:41;;;;;;;6.00;1.90;;;;;;;5.61;100.00;101455.81;5216680;28;20532;-75
2022/12/27 12:18:35;;;;;;;6.88;1.90;;;;;;;5.78;100.00;101459.25;5217644;28;20190;-74
2022/12/27 12:21:45;;;;;;;10.10;2.08;;;;;;;5.75;100.00;101457.50;5218957;28;20151;-75
2022/12/27 12:25:05;;;;;;;6.68;2.40;;;;;;;5.95;100.00;101454.91;5220155;28;20029;-75
2022/12/27 12:27:44;;;;;;;9.15;2.80;;;;;;;5.95;100.00;101463.53;5220502;23;20143;-72
2022/12/27 12:30:32;;;;;;;8.98;2.72;;;;;;;6.10;100.00;101458.31;5199242;28;20033;-72
2022/12/27 12:33:40;;;;;;;9.25;3.20;;;;;;;6.20;100.00;101469.50;5199785;28;20060;-72
2022/12/27 12:36:33;;;;;;;7.88;3.00;;;;;;;6.21;100.00;101458.25;5207629;28;20025;-72
2022/12/27 12:39:34;;;;;;;12.70;3.42;;;;;;;6.16;100.00;101470.41;5198950;28;20595;-73
2022/12/27 12:42:34;;;;;;;9.88;3.35;;;;;;;6.26;100.00;101472.09;5203948;28;20037;-72
2022/12/27 12:45:43;;;;;;;9.93;3.47;;;;;;;6.32;100.00;101472.06;5173225;28;20074;-72
2022/12/27 12:48:42;;;;;;;10.77;3.38;;;;;;;6.52;100.00;101478.03;5161962;28;20080;-72
2022/12/27 12:51:49;;;;;;;11.85;3.55;;;;;;;6.63;100.00;101468.47;5202907;28;20024;-72
2022/12/27 12:54:37;;;;;;;8.55;3.00;;;;;;;6.74;100.00;101469.28;5204506;28;20184;-72
2022/12/27 12:57:19;;;;;;;10.05;3.00;;;;;;;6.83;100.00;101466.63;5202226;28;20060;-73
2022/12/27 13:00:07;;;;;;;10.68;2.85;;;;;;;6.75;100.00;101471.84;5196975;28;20029;-72
2022/12/27 13:03:08;;;;;;;11.15;3.10;;;;;;;6.68;100.00;101469.28;5204574;28;20033;-72
2022/12/27 13:05:47;;;;;;;11.73;2.85;;;;;;;6.78;100.00;101469.22;5211337;28;20052;-72
2022/12/27 13:08:25;;;;;;;7.45;2.88;;;;;;;6.71;100.00;101464.06;5204718;28;20379;-72
2022/12/27 13:11:25;;;;;;;9.77;3.53;;;;;;;6.74;100.00;101466.69;5197978;28;20804;-72
2022/12/27 13:14:09;;;;;;;15.07;5.03;;;;;;;6.71;100.00;101459.75;5189574;28;20041;-72
2022/12/27 13:17:03;;;;;;;18.23;5.43;;;;;;;6.64;100.00;101467.59;5198984;28;20441;-72
2022/12/27 13:19:48;;;;;;;16.65;5.30;;;;;;;6.61;100.00;101462.41;5199589;28;20041;-72
2022/12/27 13:22:42;;;;;;;17.75;6.47;;;;;;;6.70;100.00;101462.34;5198303;28;20052;-73
2022/12/27 13:25:31;;;;;;;13.93;3.90;;;;;;;6.66;100.00;101465.84;5196667;28;20044;-72
2022/12/27 13:28:27;;;;;;;9.25;3.47;;;;;;;6.67;100.00;101462.38;5199379;28;20029;-72
2022/12/27 13:31:00;;;;;;;9.52;3.60;;;;;;;6.66;100.00;101460.66;5201770;28;20071;-72
2022/12/27 13:34:07;;;;;;;10.23;3.40;;;;;;;6.57;100.00;101455.53;5204118;28;20166;-71
2022/12/27 13:36:44;;;;;;;9.32;3.40;;;;;;;6.53;100.00;101459.88;5202981;28;20120;-72
2022/12/27 13:39:23;;;;;;;13.75;4.20;;;;;;;6.49;100.00;101463.34;5198079;28;20296;-72
2022/12/27 13:42:03;;;;;;;20.95;4.90;;;;;;;6.53;100.00;101454.66;5205487;28;20028;-72
2022/12/27 13:45:08;;;;;;;12.18;4.15;;;;;;;6.55;100.00;101457.25;5201575;28;20028;-72